Terminal Aerodrome Forecast
Issued by NWS Denver/Boulder, CO

Home | Current Version | Previous Version | Text Only | Print | Product List | Glossary On
Versions: 1 2 3 4 5 6 7 8 9 10 11 12 13 14 15 16 17 18 19 20 21 22 23 24 25 26 27 28 29 30 31 32 33
000
FTUS45 KBOU 231958 AAA
TAFDEN
TAF AMD
KDEN 231958Z 2320/2424 02010KT P6SM SCT015 OVC025
     FM232100 06010KT 6SM -SHRA BKN008 OVC014
     FM232300 05008KT 3SM -RA BR BKN004 OVC008
     FM240100 35007KT P6SM VCSH SCT006 BKN012
     FM240300 04010KT 5SM -RA BR BKN004 OVC008
     FM240900 34008KT P6SM VCFG SCT004 BKN014
     FM241600 02007KT P6SM VCSH SCT012 BKN025=

USA.gov is the U.S. government's official web portal to all federal, state and local government web resources and services.